Huvudsida
METAR-TAF:

METAR-TAF

Flygplatser :

Noshahr Airport

Noshahr, Iran

latitud: 36-39-48N, longitud: 051-27-53E, höjd: 0 m

Aktuellt väderrapport

Denna rapport gjordes för 1 timme och 31 minuter sedan, klockan 13:00 UTC
Stilla vind
Temperatur 18°C
Fuktighet 73%
Tryck 1023 hPa
Sikt 10 km eller mer
Spridda moln på en höjd av 2700 ft

METAR: OINN 121300Z 00000KT 9999 SCT027 18/13 Q1023

Tid: 18:01 (14:31 UTC)


TAF: saknas

Aktuella väderrapporter och prognoser från 4000 flygplatser (METAR- och TAF-rapporter).

De tillgängliga stationerna syns som gula och röda prickar på kartan.

För musen över prickarna för att se namnen på stationerna.

Klicka sedan för att få väderrapporter och prognoser.

För att ändra kartan: Klicka på de gröna knapparna med ett svart kors på för att zooma in; den gröna knappen med ett streck på för att zooma ut; eller på de gröna pilarna för angränsande kartor.


METAR-TAF: